Time;durP1;ratioP1;P1;durP2;ratioP2;P2;SDS_P1;SDS_P2;PMS_P1;PMS_P2;Temp;Humidity;BMP_temperature;BMP_pressure;BME280_temperature;BME280_humidity;BME280_pressure;Samples;Min_cycle;Max_cycle;Signal;HPM_P1;HPM_P2
2023/06/25 00:01:27;;;;;;;5.00;4.50;;;;;;;19.55;58.26;99300.88;5160430;27;42719;-82
2023/06/25 00:03:54;;;;;;;4.63;4.23;;;;;;;19.66;58.57;99326.75;5177325;27;41060;-82
2023/06/25 00:06:22;;;;;;;4.93;4.27;;;;;;;19.59;58.54;99323.78;5177243;27;40552;-82
2023/06/25 00:08:49;;;;;;;4.73;4.33;;;;;;;19.54;59.39;99325.19;5177291;27;40810;-82
2023/06/25 00:11:17;;;;;;;4.57;4.00;;;;;;;19.42;59.16;99316.38;5177158;27;42860;-82
2023/06/25 00:13:45;;;;;;;5.30;4.80;;;;;;;19.29;59.46;99307.75;5195949;27;43236;-82
2023/06/25 00:16:12;;;;;;;4.90;4.50;;;;;;;19.34;59.73;99319.78;5195900;27;39845;-82
2023/06/25 00:18:41;;;;;;;4.87;4.47;;;;;;;19.29;59.86;99315.81;5159372;27;40934;-82
2023/06/25 00:21:09;;;;;;;4.27;3.97;;;;;;;19.26;59.43;99318.78;5159618;27;42307;-82
2023/06/25 00:23:37;;;;;;;4.90;4.47;;;;;;;18.92;59.50;99270.81;5159379;27;41173;-82
2023/06/25 00:26:05;;;;;;;5.20;4.00;;;;;;;19.20;59.53;99324.69;5159103;27;38867;-82
2023/06/25 00:28:32;;;;;;;4.70;4.30;;;;;;;19.16;59.28;99320.63;5195924;27;42076;-82
2023/06/25 00:31:00;;;;;;;5.17;4.67;;;;;;;19.13;59.67;99320.88;5176840;27;42741;-82
2023/06/25 00:33:27;;;;;;;5.10;4.60;;;;;;;19.01;60.20;99304.91;5159939;27;41203;-82
2023/06/25 00:36:08;;;;;;;5.30;4.80;;;;;;;19.12;60.17;99314.66;5177926;27;40014;-82
2023/06/25 00:38:38;;;;;;;5.80;5.27;;;;;;;19.11;59.89;99318.34;5161138;27;40786;-81
2023/06/25 00:41:08;;;;;;;5.40;4.90;;;;;;;19.10;60.22;99315.78;5159494;27;42142;-82
2023/06/25 00:43:36;;;;;;;4.80;4.40;;;;;;;19.08;60.18;99307.88;5159964;27;41336;-81
2023/06/25 00:46:04;;;;;;;5.50;5.00;;;;;;;18.93;60.72;99285.09;5160229;27;41220;-82
2023/06/25 00:48:32;;;;;;;6.27;5.33;;;;;;;18.83;60.77;99279.69;5160253;27;41806;-81
2023/06/25 00:51:01;;;;;;;4.73;4.33;;;;;;;19.01;60.54;99309.41;5177465;27;42494;-82
2023/06/25 00:53:35;;;;;;;4.83;4.43;;;;;;;18.98;60.75;99318.59;5177859;27;43209;-82
2023/06/25 00:56:03;;;;;;;4.77;4.37;;;;;;;18.92;60.42;99318.28;5160188;27;39915;-81
2023/06/25 00:58:34;;;;;;;4.67;4.17;;;;;;;18.90;60.81;99310.38;5160311;27;42188;-82
2023/06/25 01:01:06;;;;;;;5.10;4.60;;;;;;;18.61;60.42;99270.03;5174627;27;42687;-82
2023/06/25 01:03:41;;;;;;;4.77;4.37;;;;;;;18.73;60.56;99292.25;5158661;27;42238;-82
2023/06/25 01:06:14;;;;;;;4.57;4.17;;;;;;;18.77;60.86;99307.09;5158716;27;38761;-82
2023/06/25 01:08:50;;;;;;;4.70;4.20;;;;;;;18.65;60.95;99292.09;5159089;27;40637;-81
2023/06/25 01:11:18;;;;;;;4.50;4.10;;;;;;;18.72;61.32;99314.69;5158818;27;41413;-81
2023/06/25 01:13:46;;;;;;;5.17;4.67;;;;;;;18.65;61.48;99306.34;5176497;27;42327;-82
2023/06/25 01:16:13;;;;;;;5.10;4.60;;;;;;;18.58;61.50;99304.34;5176245;27;38795;-81
2023/06/25 01:18:42;;;;;;;5.20;4.70;;;;;;;18.45;61.89;99287.59;5176546;27;42077;-81
2023/06/25 01:21:11;;;;;;;5.07;4.33;;;;;;;18.38;61.95;99275.72;5158653;27;42892;-81
2023/06/25 01:23:40;;;;;;;4.47;4.07;;;;;;;18.46;62.61;99295.50;5158768;27;42248;-80
2023/06/25 01:26:08;;;;;;;4.90;4.40;;;;;;;18.43;62.44;99300.28;5195080;27;39811;-81
2023/06/25 01:28:35;;;;;;;4.37;3.97;;;;;;;18.31;62.39;99283.44;5176392;27;41702;-81
2023/06/25 01:31:03;;;;;;;4.17;3.77;;;;;;;18.28;62.38;99291.78;5158670;27;41783;-81
2023/06/25 01:33:31;;;;;;;4.93;4.43;;;;;;;18.31;62.45;99300.38;5174883;27;42493;-80
2023/06/25 01:35:58;;;;;;;5.13;4.63;;;;;;;18.17;62.38;99279.31;5158353;27;39724;-81
2023/06/25 01:38:26;;;;;;;4.23;3.80;;;;;;;17.82;62.41;99220.69;5176433;27;41767;-81
2023/06/25 01:40:55;;;;;;;5.30;4.27;;;;;;;18.25;62.89;99292.88;5176756;27;42931;-80
2023/06/25 01:43:23;;;;;;;5.27;4.77;;;;;;;18.24;62.73;99284.97;5176974;27;43011;-80
2023/06/25 01:45:50;;;;;;;4.73;4.33;;;;;;;18.18;62.45;99286.34;5159108;27;41372;-81
2023/06/25 01:48:18;;;;;;;5.13;4.30;;;;;;;18.10;62.46;99272.75;5177163;27;41603;-80
2023/06/25 01:50:47;;;;;;;4.60;4.20;;;;;;;18.13;62.54;99288.59;5176615;27;43479;-82
2023/06/25 01:53:15;;;;;;;4.07;3.63;;;;;;;18.04;62.67;99276.00;5180050;27;42461;-80
2023/06/25 01:55:42;;;;;;;4.67;4.27;;;;;;;18.01;63.30;99276.25;5163170;27;39511;-82
2023/06/25 01:58:12;;;;;;;4.40;4.00;;;;;;;17.96;63.07;99270.41;5162785;27;40742;-82
2023/06/25 02:00:40;;;;;;;4.03;3.73;;;;;;;17.94;63.12;99267.03;5162465;27;41708;-81
2023/06/25 02:03:08;;;;;;;5.00;4.50;;;;;;;17.89;63.45;99269.25;5161113;27;41317;-81
2023/06/25 02:05:35;;;;;;;4.80;4.40;;;;;;;17.70;63.48;99247.69;5161545;27;38938;-82
2023/06/25 02:08:03;;;;;;;5.07;4.07;;;;;;;17.66;63.38;99244.44;5179526;27;41857;-81
2023/06/25 02:10:32;;;;;;;4.80;4.40;;;;;;;17.78;64.07;99280.91;5161578;27;42318;-81
2023/06/25 02:13:00;;;;;;;4.63;4.23;;;;;;;17.80;64.05;99280.78;5197997;27;43280;-81
2023/06/25 02:15:31;;;;;;;5.30;4.70;;;;;;;17.78;63.82;99277.38;5161434;27;39387;-81
2023/06/25 02:17:58;;;;;;;4.83;4.43;;;;;;;17.75;63.86;99280.31;5161637;27;41746;-81
2023/06/25 02:20:26;;;;;;;4.80;4.40;;;;;;;17.67;63.76;99269.41;5178819;27;41878;-82
2023/06/25 02:22:54;;;;;;;4.60;4.13;;;;;;;17.56;64.06;99268.44;5197385;27;42287;-81
2023/06/25 02:25:21;;;;;;;6.07;4.73;;;;;;;17.64;63.96;99283.06;5161384;27;39531;-81
2023/06/25 02:27:49;;;;;;;5.03;4.53;;;;;;;17.47;64.03;99253.16;5161589;27;40932;-81
2023/06/25 02:30:17;;;;;;;4.77;4.33;;;;;;;17.57;64.46;99274.63;5179236;27;42670;-81
2023/06/25 02:32:46;;;;;;;4.77;4.37;;;;;;;17.39;64.35;99250.28;5161409;27;42334;-81
2023/06/25 02:35:14;;;;;;;5.10;4.60;;;;;;;17.40;64.38;99253.81;5195545;27;40946;-81
2023/06/25 02:37:41;;;;;;;4.33;3.90;;;;;;;17.49;64.44;99271.78;5162178;27;41727;-81
2023/06/25 02:40:11;;;;;;;4.70;4.00;;;;;;;17.42;64.24;99265.25;5162369;27;41717;-81
2023/06/25 02:42:39;;;;;;;4.30;3.90;;;;;;;17.43;64.54;99267.75;5179560;27;42522;-81
2023/06/25 02:45:08;;;;;;;4.30;3.90;;;;;;;17.42;64.27;99270.59;5179833;27;40298;-81
2023/06/25 02:47:35;;;;;;;4.77;4.30;;;;;;;17.37;64.79;99262.94;5161968;27;41753;-81
2023/06/25 02:50:05;;;;;;;4.60;4.20;;;;;;;17.37;64.85;99267.44;5179361;27;41868;-81
2023/06/25 02:52:34;;;;;;;3.83;3.53;;;;;;;17.30;64.39;99256.41;5162213;27;42285;-81
2023/06/25 02:55:02;;;;;;;4.40;4.00;;;;;;;16.97;64.48;99203.84;5162340;27;38752;-81
2023/06/25 02:57:30;;;;;;;4.50;4.10;;;;;;;17.23;64.70;99256.06;5161630;27;41742;-81
2023/06/25 02:59:58;;;;;;;4.23;3.83;;;;;;;17.23;65.19;99250.72;5161927;27;41714;-81
2023/06/25 03:02:27;;;;;;;5.10;4.60;;;;;;;17.19;64.83;99254.59;5159675;27;41145;-81
2023/06/25 03:04:55;;;;;;;5.27;4.70;;;;;;;17.16;65.35;99259.38;5160520;27;39187;-80
2023/06/25 03:07:24;;;;;;;4.73;4.33;;;;;;;16.75;65.07;99202.13;5160502;27;40790;-81
2023/06/25 03:09:54;;;;;;;4.70;4.20;;;;;;;17.11;65.02;99251.72;5161342;27;42285;-81
2023/06/25 03:12:22;;;;;;;4.30;3.90;;;;;;;17.10;65.02;99265.22;5160296;27;42362;-80
2023/06/25 03:14:50;;;;;;;4.40;4.00;;;;;;;17.07;65.26;99260.13;5178718;27;41111;-81
2023/06/25 03:17:17;;;;;;;4.60;4.20;;;;;;;16.95;65.21;99245.94;5160651;27;41660;-80
2023/06/25 03:19:45;;;;;;;4.60;4.20;;;;;;;16.98;65.46;99250.19;5160508;27;42233;-80
2023/06/25 03:22:13;;;;;;;4.50;4.10;;;;;;;17.02;65.50;99263.19;5177743;27;42413;-81
2023/06/25 03:24:45;;;;;;;4.53;4.13;;;;;;;17.00;65.90;99256.28;5175227;27;40133;-81
2023/06/25 03:27:13;;;;;;;4.47;4.03;;;;;;;16.84;65.91;99235.28;5177861;27;42452;-81
2023/06/25 03:29:41;;;;;;;4.73;4.10;;;;;;;17.00;65.89;99264.31;5177704;27;42128;-81
2023/06/25 03:32:09;;;;;;;4.10;3.67;;;;;;;16.99;65.85;99251.91;5160357;27;42531;-80
2023/06/25 03:34:37;;;;;;;5.00;4.60;;;;;;;16.98;66.17;99260.91;5178842;27;40521;-80
2023/06/25 03:37:07;;;;;;;5.03;4.53;;;;;;;16.74;65.85;99216.47;5178304;27;41526;-80
2023/06/25 03:39:34;;;;;;;4.87;4.40;;;;;;;16.90;65.93;99247.31;5179151;27;42769;-80
2023/06/25 03:42:04;;;;;;;4.50;4.07;;;;;;;17.01;66.00;99261.50;5197318;27;43179;-80
2023/06/25 03:44:32;;;;;;;4.60;4.20;;;;;;;17.05;65.59;99260.28;5161328;27;40428;-80
2023/06/25 03:47:01;;;;;;;4.00;3.50;;;;;;;17.01;65.97;99252.63;5178659;27;42897;-80
2023/06/25 03:49:29;;;;;;;4.20;3.80;;;;;;;17.10;65.88;99260.72;5178748;27;42783;-80
2023/06/25 03:51:56;;;;;;;4.97;4.47;;;;;;;17.13;66.19;99259.63;5160819;27;43625;-80
2023/06/25 03:54:24;;;;;;;4.30;3.83;;;;;;;17.15;65.90;99257.69;5158964;27;38897;-80
2023/06/25 03:56:52;;;;;;;4.97;4.57;;;;;;;17.08;66.15;99240.41;5159878;27;40640;-79
2023/06/25 03:59:21;;;;;;;4.77;4.37;;;;;;;17.20;65.99;99258.13;5159836;27;41773;-80
2023/06/25 04:01:50;;;;;;;4.97;4.17;;;;;;;17.22;65.99;99258.84;5159236;27;40880;-81
2023/06/25 04:04:19;;;;;;;5.20;4.70;;;;;;;17.26;66.00;99260.31;5160044;27;41088;-83
2023/06/25 04:06:46;;;;;;;4.20;3.80;;;;;;;17.32;65.86;99259.78;5159652;27;41702;-82
2023/06/25 04:09:16;;;;;;;4.60;4.20;;;;;;;17.34;66.22;99257.84;5159885;27;42211;-82
2023/06/25 04:11:44;;;;;;;4.53;4.13;;;;;;;17.34;66.02;99252.47;5195846;27;42351;-82
2023/06/25 04:14:12;;;;;;;4.33;4.00;;;;;;;17.49;65.91;99256.56;5158889;27;39964;-82
2023/06/25 04:16:41;;;;;;;5.03;4.53;;;;;;;17.55;65.75;99265.91;5177017;27;42653;-83
2023/06/25 04:19:10;;;;;;;5.73;5.10;;;;;;;17.62;66.06;99260.88;5160340;27;42797;-82
2023/06/25 04:21:38;;;;;;;5.20;4.57;;;;;;;17.68;65.74;99260.41;5159308;27;41235;-82
2023/06/25 04:24:06;;;;;;;5.33;4.83;;;;;;;17.66;65.88;99240.91;5159542;27;39392;-82
2023/06/25 04:26:34;;;;;;;4.80;4.30;;;;;;;17.82;65.57;99258.22;5159165;27;40341;-82
2023/06/25 04:29:04;;;;;;;4.60;4.20;;;;;;;17.89;65.80;99253.19;5159346;27;43227;-81
2023/06/25 04:31:32;;;;;;;4.63;4.13;;;;;;;17.98;65.51;99262.25;5176650;27;42999;-82
2023/06/25 04:34:01;;;;;;;4.70;4.03;;;;;;;18.05;65.72;99258.91;5177546;27;40712;-82
2023/06/25 04:36:29;;;;;;;4.50;4.10;;;;;;;18.04;65.46;99240.28;5160076;27;40849;-82
2023/06/25 04:38:59;;;;;;;5.20;4.77;;;;;;;18.22;65.13;99260.13;5160432;27;42838;-80
2023/06/25 04:41:30;;;;;;;4.93;4.43;;;;;;;18.21;65.41;99239.66;5160395;27;42216;-82
2023/06/25 04:43:58;;;;;;;4.80;4.40;;;;;;;18.39;65.21;99256.81;5160771;27;38792;-82
2023/06/25 04:46:26;;;;;;;5.47;5.00;;;;;;;18.38;65.09;99238.19;5177182;27;40827;-82
2023/06/25 04:48:54;;;;;;;5.57;5.07;;;;;;;18.57;64.98;99255.16;5160133;27;42149;-82
2023/06/25 04:51:23;;;;;;;5.17;4.77;;;;;;;18.65;65.02;99243.81;5159712;27;41369;-82
2023/06/25 04:53:51;;;;;;;4.83;4.33;;;;;;;18.76;64.50;99254.41;5160458;27;40079;-82
2023/06/25 04:56:18;;;;;;;5.93;5.30;;;;;;;18.86;64.73;99252.59;5159945;27;40593;-82
2023/06/25 04:58:46;;;;;;;5.67;5.17;;;;;;;18.95;64.63;99251.75;5160106;27;44366;-82
2023/06/25 05:01:14;;;;;;;5.77;5.27;;;;;;;19.06;64.68;99255.28;5177341;27;41202;-82
2023/06/25 05:03:41;;;;;;;5.63;5.13;;;;;;;19.05;64.80;99241.03;5160195;27;39172;-82
2023/06/25 05:06:09;;;;;;;5.97;5.27;;;;;;;19.09;64.53;99228.19;5159709;27;41131;-82
2023/06/25 05:08:38;;;;;;;7.10;5.57;;;;;;;19.35;64.48;99250.78;5196217;27;42637;-82
2023/06/25 05:11:06;;;;;;;5.80;5.23;;;;;;;19.36;64.04;99242.59;5177082;27;42529;-82
2023/06/25 05:13:35;;;;;;;4.80;4.40;;;;;;;19.27;63.72;99211.25;5175791;27;39367;-82
2023/06/25 05:16:03;;;;;;;5.70;5.23;;;;;;;19.63;63.77;99244.59;5158530;27;40674;-83
2023/06/25 05:18:30;;;;;;;6.20;5.70;;;;;;;19.80;63.91;99259.13;5158897;27;41908;-83
2023/06/25 05:20:58;;;;;;;6.10;4.80;;;;;;;19.90;63.54;99259.97;5158447;27;42572;-80
2023/06/25 05:23:26;;;;;;;5.97;5.47;;;;;;;19.91;63.76;99240.13;5158998;27;38872;-80
2023/06/25 05:25:55;;;;;;;6.03;5.53;;;;;;;20.11;63.72;99254.38;5159800;27;41786;-80
2023/06/25 05:28:23;;;;;;;5.80;5.30;;;;;;;20.22;63.49;99254.19;5180329;27;43717;-83
2023/06/25 05:30:51;;;;;;;5.63;5.03;;;;;;;20.33;63.05;99259.41;5179634;27;43112;-83
2023/06/25 05:33:19;;;;;;;6.13;5.63;;;;;;;20.39;62.90;99252.63;5180164;27;39082;-82
2023/06/25 05:35:47;;;;;;;6.70;6.10;;;;;;;20.54;62.39;99267.25;5180427;27;40695;-80
2023/06/25 05:38:14;;;;;;;6.57;5.97;;;;;;;20.64;61.93;99269.91;5163506;27;42045;-82
2023/06/25 05:40:42;;;;;;;5.77;4.97;;;;;;;20.75;62.12;99264.34;5180448;27;42350;-83
2023/06/25 05:43:11;;;;;;;5.73;5.13;;;;;;;20.83;61.96;99261.72;5180835;27;41622;-82
2023/06/25 05:45:39;;;;;;;6.57;5.40;;;;;;;20.92;61.50;99254.56;5180593;27;41955;-82
2023/06/25 05:48:08;;;;;;;5.07;4.60;;;;;;;21.14;61.08;99264.94;5180829;27;42670;-82
2023/06/25 05:50:35;;;;;;;5.30;4.80;;;;;;;21.21;60.61;99251.72;5180375;27;41861;-83
2023/06/25 05:53:03;;;;;;;6.73;5.47;;;;;;;21.45;60.02;99268.13;5163446;27;40217;-83
2023/06/25 05:55:31;;;;;;;5.47;4.97;;;;;;;21.62;59.46;99269.09;5162800;27;40908;-83
2023/06/25 05:57:59;;;;;;;6.03;5.43;;;;;;;21.80;58.14;99276.16;5180700;27;42865;-83
2023/06/25 06:00:28;;;;;;;5.70;5.17;;;;;;;21.96;57.80;99274.59;5178330;27;41334;-83
2023/06/25 06:02:56;;;;;;;5.33;4.50;;;;;;;22.12;57.68;99277.44;5198295;27;39990;-83
2023/06/25 06:05:23;;;;;;;5.10;4.70;;;;;;;22.29;57.69;99276.50;5178920;27;40704;-80
2023/06/25 06:07:51;;;;;;;5.57;5.03;;;;;;;22.36;57.50;99264.09;5161952;27;42861;-85
2023/06/25 06:10:19;;;;;;;7.83;4.80;;;;;;;22.59;56.93;99280.56;5179344;27;42086;-81
2023/06/25 06:12:47;;;;;;;4.83;4.43;;;;;;;22.63;56.56;99270.25;5161858;27;40316;-83
2023/06/25 06:15:15;;;;;;;5.00;4.60;;;;;;;22.85;56.53;99288.63;5179036;27;40640;-84
2023/06/25 06:17:45;;;;;;;5.20;4.70;;;;;;;22.89;55.71;99273.75;5178881;27;42993;-83
2023/06/25 06:20:13;;;;;;;6.20;5.10;;;;;;;23.04;54.38;99277.53;5197908;27;42561;-83
2023/06/25 06:22:41;;;;;;;4.93;4.50;;;;;;;23.25;53.34;99304.94;5179319;27;40962;-84
2023/06/25 06:25:09;;;;;;;4.80;4.40;;;;;;;23.48;53.06;99304.31;5161744;27;40658;-83
2023/06/25 06:27:37;;;;;;;5.73;5.13;;;;;;;23.58;52.27;99294.22;5178808;27;42388;-83
2023/06/25 06:30:06;;;;;;;7.23;5.70;;;;;;;23.76;51.24;99302.16;5160975;27;41558;-81
2023/06/25 06:32:34;;;;;;;5.47;4.97;;;;;;;23.86;49.92;99313.69;5161012;27;41081;-81
2023/06/25 06:35:03;;;;;;;5.83;5.00;;;;;;;23.97;50.06;99311.47;5180311;27;42157;-82
2023/06/25 06:37:30;;;;;;;5.07;4.60;;;;;;;24.11;50.20;99311.81;5178778;27;42698;-80
2023/06/25 06:39:58;;;;;;;5.50;4.97;;;;;;;24.16;49.28;99310.25;5198878;27;43286;-81
2023/06/25 06:42:26;;;;;;;5.80;5.20;;;;;;;24.43;48.95;99316.31;5180071;27;40161;-81
2023/06/25 06:44:53;;;;;;;5.20;4.70;;;;;;;24.78;48.43;99320.44;5162803;27;41769;-82
2023/06/25 06:47:21;;;;;;;5.83;4.90;;;;;;;25.04;48.23;99321.03;5162227;27;42139;-81
2023/06/25 06:49:49;;;;;;;4.63;4.20;;;;;;;25.31;47.90;99317.84;5179710;27;42056;-82
2023/06/25 06:52:20;;;;;;;5.03;4.57;;;;;;;25.39;47.33;99315.09;5179527;27;40022;-81
2023/06/25 06:54:47;;;;;;;5.40;4.90;;;;;;;25.46;47.73;99320.66;5179125;27;41433;-81
2023/06/25 06:57:15;;;;;;;5.37;4.87;;;;;;;25.54;48.06;99322.44;5161737;27;42905;-81
2023/06/25 06:59:43;;;;;;;5.27;4.80;;;;;;;25.52;46.95;99319.06;5179620;27;42402;-81
2023/06/25 07:02:13;;;;;;;5.20;4.70;;;;;;;25.55;46.20;99324.16;5177402;27;40189;-81
2023/06/25 07:04:45;;;;;;;5.20;4.70;;;;;;;25.54;46.10;99295.31;5178803;27;40990;-80
2023/06/25 07:07:13;;;;;;;4.90;4.40;;;;;;;25.73;46.59;99305.72;5178217;27;42905;-81
2023/06/25 07:09:50;;;;;;;4.53;4.13;;;;;;;25.71;45.93;99273.38;5160477;27;41024;-81
2023/06/25 07:12:19;;;;;;;5.20;4.70;;;;;;;26.14;45.53;99317.06;5160382;27;39121;-81
2023/06/25 07:14:46;;;;;;;6.87;5.40;;;;;;;26.34;44.04;99336.41;5160684;27;40541;-81
2023/06/25 07:17:14;;;;;;;5.00;4.60;;;;;;;26.28;44.46;99304.56;5177976;27;41590;-81
2023/06/25 07:19:42;;;;;;;5.57;5.07;;;;;;;26.60;44.13;99331.38;5196646;27;43465;-80
2023/06/25 07:22:09;;;;;;;5.37;4.70;;;;;;;26.76;43.56;99344.78;5177793;27;40456;-81
2023/06/25 07:24:40;;;;;;;5.07;4.50;;;;;;;26.91;43.74;99339.34;5196894;27;41977;-82
2023/06/25 07:27:09;;;;;;;5.10;4.70;;;;;;;27.06;43.94;99337.50;5177878;27;41914;-82
2023/06/25 07:29:37;;;;;;;5.50;5.00;;;;;;;27.25;44.29;99337.94;5196652;27;42322;-81
2023/06/25 07:32:09;;;;;;;5.40;4.90;;;;;;;27.42;43.67;99331.25;5196265;27;40975;-81
2023/06/25 07:34:37;;;;;;;5.17;4.70;;;;;;;27.83;42.97;99347.81;5179100;27;42011;-81
2023/06/25 07:37:05;;;;;;;5.23;4.83;;;;;;;28.19;41.38;99345.00;5178803;27;41884;-82
2023/06/25 07:39:33;;;;;;;5.03;4.53;;;;;;;28.41;40.47;99348.56;5178956;27;41148;-81
2023/06/25 07:42:02;;;;;;;5.50;5.00;;;;;;;28.63;39.97;99355.63;5161673;27;39409;-81
2023/06/25 07:44:31;;;;;;;4.73;4.33;;;;;;;28.93;39.06;99359.00;5178664;27;42447;-81
2023/06/25 07:46:59;;;;;;;5.57;5.07;;;;;;;29.17;39.25;99350.31;5161272;27;42279;-82
2023/06/25 07:49:27;;;;;;;5.20;4.70;;;;;;;29.75;38.53;99352.63;5178828;27;42951;-81
2023/06/25 07:51:54;;;;;;;5.50;4.40;;;;;;;30.80;36.50;99368.22;5178398;27;38952;-81
2023/06/25 07:54:22;;;;;;;4.77;4.37;;;;;;;31.57;34.54;99351.75;5161376;27;40911;-82
2023/06/25 07:56:50;;;;;;;5.87;5.17;;;;;;;32.18;32.87;99351.19;5160840;27;43192;-83
2023/06/25 07:59:18;;;;;;;4.73;4.33;;;;;;;33.40;32.41;99382.47;5179063;27;42659;-83
2023/06/25 08:01:48;;;;;;;4.87;4.37;;;;;;;34.86;30.54;99382.81;5160009;27;39226;-83
2023/06/25 08:04:15;;;;;;;4.35;4.05;;;;;;;36.67;28.20;99397.69;5176860;27;42144;-83
2023/06/25 08:06:43;;;;;;;4.22;3.92;;;;;;;38.33;25.64;99413.09;5177288;27;41639;-82
2023/06/25 08:09:11;;;;;;;4.78;4.32;;;;;;;39.36;23.58;99394.16;5159562;27;42264;-83
2023/06/25 08:15:24;;;;;;;3.72;3.42;;;;;;;42.10;21.78;99405.97;5127457;27;41483;-83
2023/06/25 08:17:53;;;;;;;5.05;4.57;;;;;;;43.07;21.03;99419.06;5159624;27;41825;-84
2023/06/25 08:20:21;;;;;;;4.47;3.80;;;;;;;43.62;21.06;99398.94;5195589;27;42396;-83
2023/06/25 08:22:49;;;;;;;4.03;3.58;;;;;;;44.22;20.63;99415.94;5177125;27;39149;-83
2023/06/25 08:25:21;;;;;;;6.10;3.97;;;;;;;44.31;19.83;99408.53;5177400;27;42554;-84
2023/06/25 08:27:49;;;;;;;3.40;3.20;;;;;;;43.76;20.34;99373.09;5159763;27;42810;-83
2023/06/25 08:30:16;;;;;;;4.10;3.80;;;;;;;43.70;19.92;99408.59;5159316;27;44272;-83
2023/06/25 08:32:44;;;;;;;3.90;3.60;;;;;;;43.04;20.89;99380.63;5159099;27;38913;-82
2023/06/25 08:35:15;;;;;;;4.13;3.83;;;;;;;42.26;21.44;99376.88;5177399;27;42266;-81
2023/06/25 08:37:43;;;;;;;4.03;3.63;;;;;;;41.87;22.67;99364.91;5160342;27;42911;-82
2023/06/25 08:40:12;;;;;;;3.78;3.45;;;;;;;41.53;22.74;99375.94;5177862;27;42295;-82
2023/06/25 08:42:41;;;;;;;4.47;4.07;;;;;;;40.95;22.93;99363.59;5160011;27;38695;-82
2023/06/25 08:45:10;;;;;;;4.53;4.13;;;;;;;40.55;22.39;99357.00;5156163;27;41159;-84
2023/06/25 08:47:39;;;;;;;4.13;3.83;;;;;;;40.35;23.44;99362.56;5163949;27;43216;-82
2023/06/25 08:50:08;;;;;;;5.38;4.88;;;;;;;39.63;22.35;99349.66;5172062;27;42233;-80
2023/06/25 08:52:38;;;;;;;4.65;4.25;;;;;;;39.19;22.39;99377.75;5164130;27;40475;-79
2023/06/25 08:55:10;;;;;;;4.53;4.22;;;;;;;38.42;23.51;99350.63;5169454;27;43612;-80
2023/06/25 08:57:38;;;;;;;4.03;3.72;;;;;;;37.81;23.81;99366.66;5152979;27;41810;-78
2023/06/25 09:00:07;;;;;;;4.32;4.00;;;;;;;37.30;24.48;99352.22;5164543;27;42064;-83
2023/06/25 09:02:35;;;;;;;4.10;3.80;;;;;;;36.98;24.80;99327.19;5169080;27;41665;-81
2023/06/25 09:05:05;;;;;;;4.70;4.30;;;;;;;37.49;25.09;99347.19;5170108;27;41849;-80
2023/06/25 09:07:34;;;;;;;4.10;3.70;;;;;;;37.59;24.42;99316.03;5149401;27;41899;-83
2023/06/25 09:10:07;;;;;;;4.70;4.30;;;;;;;37.71;25.04;99330.59;5147808;27;40914;-85
2023/06/25 09:12:35;;;;;;;4.23;3.93;;;;;;;37.54;25.00;99327.06;5147699;27;40231;-82
2023/06/25 09:15:03;;;;;;;4.23;3.93;;;;;;;37.82;24.30;99334.31;5146884;27;41675;-82
2023/06/25 09:17:31;;;;;;;3.73;3.43;;;;;;;38.42;23.73;99334.03;5166315;27;43583;-83
2023/06/25 09:20:07;;;;;;;4.23;3.93;;;;;;;38.72;23.13;99342.53;5165822;27;43245;-83
2023/06/25 09:22:49;;;;;;;4.30;4.00;;;;;;;38.06;23.59;99313.50;5146169;27;38991;-83
2023/06/25 09:25:19;;;;;;;4.23;3.93;;;;;;;37.84;23.69;99298.91;5149442;27;41630;-87
2023/06/25 09:27:48;;;;;;;4.63;3.90;;;;;;;37.81;24.89;99339.00;5159683;27;41990;-88
2023/06/25 09:30:18;;;;;;;4.20;3.77;;;;;;;38.05;24.02;99345.88;5152805;27;41301;-83
2023/06/25 09:32:50;;;;;;;4.10;3.80;;;;;;;38.99;23.77;99339.69;5171221;27;40830;-83
2023/06/25 09:35:22;;;;;;;4.38;4.07;;;;;;;40.14;21.55;99356.97;5168616;27;41744;-82
2023/06/25 09:37:51;;;;;;;4.10;3.80;;;;;;;40.86;20.69;99358.63;5164164;27;43718;-80
2023/06/25 09:40:21;;;;;;;4.22;3.92;;;;;;;40.93;21.24;99349.19;5167784;27;42216;-83
2023/06/25 09:43:29;;;;;;;4.75;4.35;;;;;;;41.85;21.53;99342.09;5177535;27;40899;-80
2023/06/25 09:45:59;;;;;;;3.60;3.30;;;;;;;42.27;20.48;99349.88;5158855;27;42306;-80
2023/06/25 09:48:27;;;;;;;4.13;3.72;;;;;;;42.53;19.90;99333.81;5175949;27;42025;-80
2023/06/25 09:50:57;;;;;;;3.70;3.40;;;;;;;42.70;19.54;99309.09;5176188;27;42299;-80
2023/06/25 09:53:30;;;;;;;3.80;3.50;;;;;;;43.15;19.48;99343.97;5194915;27;40773;-81
2023/06/25 09:56:00;;;;;;;4.25;3.67;;;;;;;42.20;19.08;99344.63;5158252;27;41807;-80
2023/06/25 09:58:30;;;;;;;3.70;3.40;;;;;;;41.90;19.99;99340.13;5176015;27;42772;-81
2023/06/25 10:00:57;;;;;;;3.55;3.25;;;;;;;42.21;19.87;99340.72;5175373;27;43199;-80
2023/06/25 10:03:26;;;;;;;3.55;3.22;;;;;;;42.18;20.57;99324.59;5175478;27;40079;-80
2023/06/25 10:05:54;;;;;;;3.70;3.40;;;;;;;42.31;19.92;99320.31;5175864;27;41035;-81
2023/06/25 10:08:21;;;;;;;3.58;3.28;;;;;;;41.84;20.61;99323.72;5175486;27;41791;-80
2023/06/25 10:10:57;;;;;;;4.18;3.78;;;;;;;40.88;20.50;99302.78;5194607;27;42359;-80
2023/06/25 10:13:27;;;;;;;5.45;3.60;;;;;;;39.83;20.00;99327.50;5160147;27;38852;-79
2023/06/25 10:15:58;;;;;;;4.30;3.92;;;;;;;38.95;21.24;99305.28;5161521;27;41031;-80
2023/06/25 10:18:26;;;;;;;3.85;3.55;;;;;;;38.62;21.84;99298.19;5178688;27;42836;-81
2023/06/25 10:20:57;;;;;;;3.42;3.13;;;;;;;38.70;22.32;99297.66;5161781;27;41396;-79
2023/06/25 10:23:26;;;;;;;4.20;3.90;;;;;;;38.66;22.59;99285.47;5198196;27;40364;-80
2023/06/25 10:25:54;;;;;;;3.88;3.58;;;;;;;38.56;22.85;99274.34;5161745;27;41144;-80
2023/06/25 10:28:31;;;;;;;3.90;3.50;;;;;;;38.29;23.14;99257.00;5178693;27;43597;-79
2023/06/25 10:30:59;;;;;;;3.67;3.38;;;;;;;38.08;23.13;99276.19;5176463;27;42335;-79
2023/06/25 10:33:30;;;;;;;3.70;3.40;;;;;;;37.83;23.28;99275.97;5178948;27;40927;-80
2023/06/25 10:35:59;;;;;;;3.75;3.45;;;;;;;37.64;23.44;99271.91;5178972;27;41030;-80
2023/06/25 10:38:26;;;;;;;3.55;3.30;;;;;;;37.55;24.05;99249.41;5197611;27;44065;-81
2023/06/25 10:40:55;;;;;;;3.83;3.53;;;;;;;37.62;23.65;99263.00;5159090;27;41234;-80
2023/06/25 10:43:22;;;;;;;4.25;3.85;;;;;;;37.62;24.55;99250.06;5196657;27;42117;-80
2023/06/25 10:45:53;;;;;;;4.75;4.35;;;;;;;37.66;23.54;99236.56;5178024;27;41731;-80
2023/06/25 10:48:21;;;;;;;3.80;3.50;;;;;;;37.50;24.20;99248.53;5160018;27;41770;-80
2023/06/25 10:50:50;;;;;;;4.40;4.10;;;;;;;37.22;24.74;99241.31;5159859;27;42337;-80
2023/06/25 10:53:19;;;;;;;4.03;3.72;;;;;;;36.99;23.95;99236.88;5196378;27;40096;-79
2023/06/25 10:55:48;;;;;;;4.07;3.77;;;;;;;36.81;23.89;99245.50;5160304;27;41575;-79
2023/06/25 10:58:17;;;;;;;4.60;4.20;;;;;;;36.61;24.58;99241.34;5160058;27;41783;-79
2023/06/25 11:00:45;;;;;;;4.00;3.70;;;;;;;36.55;26.05;99225.84;5160290;27;42349;-78
2023/06/25 11:03:15;;;;;;;4.53;4.20;;;;;;;36.50;24.37;99231.25;5178122;27;38989;-78
2023/06/25 11:05:45;;;;;;;4.40;4.00;;;;;;;36.41;25.82;99219.00;5178456;27;42160;-78
2023/06/25 11:08:14;;;;;;;3.90;3.60;;;;;;;36.44;25.58;99224.03;5178450;27;43722;-78
2023/06/25 11:10:43;;;;;;;4.37;4.00;;;;;;;36.47;25.79;99218.00;5178410;27;42431;-79
2023/06/25 11:13:12;;;;;;;4.40;4.10;;;;;;;36.46;26.62;99194.25;5178577;27;38978;-79
2023/06/25 11:15:41;;;;;;;4.50;4.00;;;;;;;36.53;25.50;99216.13;5178688;27;42736;-78
2023/06/25 11:18:09;;;;;;;4.73;3.53;;;;;;;36.54;25.75;99215.03;5197115;27;44005;-78
2023/06/25 11:20:42;;;;;;;4.20;3.80;;;;;;;36.64;26.53;99196.69;5197190;27;43593;-79
2023/06/25 11:23:11;;;;;;;4.17;3.87;;;;;;;36.59;26.15;99166.28;5193123;27;40169;-79
2023/06/25 11:25:39;;;;;;;4.30;3.90;;;;;;;36.83;24.91;99213.81;5177053;27;42502;-79
2023/06/25 11:28:09;;;;;;;4.43;3.67;;;;;;;36.59;24.49;99215.97;5177346;27;42939;-79
2023/06/25 11:30:37;;;;;;;4.20;3.90;;;;;;;36.49;25.81;99204.75;5196046;27;42295;-79
2023/06/25 11:33:10;;;;;;;4.57;4.10;;;;;;;36.49;24.37;99215.78;5176963;27;40889;-79
2023/06/25 11:35:38;;;;;;;4.47;3.80;;;;;;;36.44;25.34;99207.47;5177042;27;41931;-80
2023/06/25 11:38:07;;;;;;;4.23;3.93;;;;;;;36.56;25.58;99201.81;5195697;27;42864;-79
2023/06/25 11:40:38;;;;;;;4.83;4.07;;;;;;;36.56;25.11;99204.59;5159510;27;40796;-79
2023/06/25 11:43:06;;;;;;;4.50;4.17;;;;;;;36.71;24.74;99196.53;5174733;27;40091;-79
2023/06/25 11:45:42;;;;;;;4.63;3.70;;;;;;;36.98;25.53;99191.03;5159310;27;42154;-80